createdAt,value
2022-10-21T00:00:16.581Z,93.0
2022-10-21T00:01:17.012Z,92.7
2022-10-21T00:02:16.823Z,93.0
2022-10-21T00:03:17.335Z,92.9
2022-10-21T00:04:16.794Z,92.4
2022-10-21T00:05:17.258Z,92.1
2022-10-21T00:06:16.755Z,92.2
2022-10-21T00:07:17.218Z,91.8
2022-10-21T00:08:16.672Z,91.8
2022-10-21T00:09:17.097Z,91.8
2022-10-21T00:10:16.526Z,91.6
2022-10-21T00:11:16.955Z,91.5
2022-10-21T00:12:16.835Z,91.5
2022-10-21T00:13:17.302Z,92.1
2022-10-21T00:14:16.756Z,92.0
2022-10-21T00:15:17.187Z,91.9
2022-10-21T00:16:16.619Z,91.9
2022-10-21T00:17:17.085Z,92.0
2022-10-21T00:18:16.564Z,91.8
2022-10-21T00:19:17.038Z,91.6
2022-10-21T00:20:16.587Z,91.6
2022-10-21T00:21:17.102Z,91.6
2022-10-21T00:22:16.943Z,91.8
2022-10-21T00:23:17.415Z,91.9
2022-10-21T00:24:16.879Z,91.8
2022-10-21T00:25:17.319Z,91.8
2022-10-21T00:26:16.740Z,91.8
2022-10-21T00:27:17.166Z,91.8
2022-10-21T00:28:16.619Z,91.8
2022-10-21T00:29:17.121Z,91.8
2022-10-21T00:30:16.593Z,91.5
2022-10-21T00:31:17.073Z,91.5
2022-10-21T00:32:16.952Z,91.6
2022-10-21T00:33:17.435Z,91.7
2022-10-21T00:34:16.898Z,91.8
2022-10-21T00:35:17.367Z,91.7
2022-10-21T00:36:16.817Z,91.5
2022-10-21T00:37:17.281Z,91.7
2022-10-21T00:38:16.791Z,91.8
2022-10-21T00:39:17.243Z,91.9
2022-10-21T00:40:16.667Z,92.1
2022-10-21T00:41:17.107Z,92.0
2022-10-21T00:42:16.615Z,92.0
2022-10-21T00:43:17.082Z,92.1
2022-10-21T00:44:16.511Z,92.2
2022-10-21T00:45:16.952Z,91.8
2022-10-21T00:46:17.412Z,91.8
2022-10-21T00:47:16.896Z,91.9
2022-10-21T00:48:17.396Z,91.7
2022-10-21T00:49:16.859Z,91.8
2022-10-21T00:50:17.337Z,91.8
2022-10-21T00:51:16.803Z,92.2
2022-10-21T00:52:17.416Z,92.3
2022-10-21T00:53:16.884Z,92.5
2022-10-21T00:54:17.304Z,92.9
2022-10-21T00:55:16.740Z,92.7
2022-10-21T00:56:17.171Z,92.8
2022-10-21T00:57:16.606Z,93.0
2022-10-21T00:58:17.042Z,92.8
2022-10-21T00:59:16.476Z,93.0
2022-10-21T01:00:16.925Z,93.2
2022-10-21T01:01:21.753Z,93.2
2022-10-21T01:02:17.309Z,93.2
2022-10-21T01:03:16.784Z,92.9
2022-10-21T01:04:17.227Z,92.9
2022-10-21T01:05:16.694Z,93.5
2022-10-21T01:06:17.170Z,93.6
2022-10-21T01:07:16.626Z,93.8
2022-10-21T01:08:17.052Z,94.0
2022-10-21T01:09:16.661Z,94.3
2022-10-21T01:10:17.208Z,94.4
2022-10-21T01:11:16.654Z,94.5
2022-10-21T01:12:16.738Z,94.6
2022-10-21T01:13:17.159Z,94.3
2022-10-21T01:14:16.579Z,94.3
2022-10-21T01:15:17.048Z,94.2
2022-10-21T01:16:16.527Z,94.2
2022-10-21T01:17:40.594Z,94.5
2022-10-21T01:18:16.521Z,94.7
2022-10-21T01:19:17.014Z,94.9
2022-10-21T01:20:16.489Z,94.7
2022-10-21T01:21:16.949Z,94.6
2022-10-21T01:22:16.886Z,94.8
2022-10-21T01:23:17.341Z,94.8
2022-10-21T01:24:16.776Z,94.8
2022-10-21T01:25:17.224Z,95.0
2022-10-21T01:26:16.674Z,95.0
2022-10-21T01:27:17.130Z,95.0
2022-10-21T01:28:16.552Z,95.1
2022-10-21T01:29:16.991Z,95.2
2022-10-21T01:30:16.419Z,95.3
2022-10-21T01:31:16.947Z,95.3
2022-10-21T01:32:16.933Z,95.5
2022-10-21T01:33:17.413Z,95.5
2022-10-21T01:34:16.887Z,95.6
2022-10-21T01:35:17.341Z,95.9
2022-10-21T01:36:16.833Z,95.7
2022-10-21T01:37:17.314Z,96.1
2022-10-21T01:38:16.782Z,96.2
2022-10-21T01:39:17.223Z,96.1
2022-10-21T01:40:16.654Z,96.1
2022-10-21T01:41:17.086Z,96.0
2022-10-21T01:42:16.662Z,96.0
2022-10-21T01:43:17.090Z,96.0
2022-10-21T01:44:16.536Z,95.9
2022-10-21T01:45:16.978Z,95.8
2022-10-21T01:46:16.454Z,95.9
2022-10-21T01:47:16.891Z,95.9
2022-10-21T01:48:17.363Z,95.9
2022-10-21T01:49:16.825Z,96.2
2022-10-21T01:50:17.286Z,96.0
2022-10-21T01:51:16.901Z,96.1
2022-10-21T01:52:16.587Z,96.2
2022-10-21T01:53:17.045Z,96.2
2022-10-21T01:54:16.480Z,96.3
2022-10-21T01:55:16.913Z,96.0
2022-10-21T01:56:17.335Z,96.0
2022-10-21T01:57:16.768Z,96.1
2022-10-21T01:58:17.263Z,96.2
2022-10-21T01:59:16.720Z,96.2
2022-10-21T02:00:17.303Z,96.2
2022-10-21T02:01:16.956Z,96.2
2022-10-21T02:02:17.375Z,96.3
2022-10-21T02:03:16.851Z,96.2
2022-10-21T02:04:17.331Z,96.2
2022-10-21T02:05:16.789Z,96.3
2022-10-21T02:06:17.257Z,96.3
2022-10-21T02:07:16.744Z,96.4
2022-10-21T02:08:17.180Z,96.6
2022-10-21T02:09:16.610Z,96.5
2022-10-21T02:10:17.088Z,96.5
2022-10-21T02:11:16.565Z,96.6
2022-10-21T02:12:16.407Z,96.6
2022-10-21T02:13:16.861Z,96.7
2022-10-21T02:14:17.293Z,96.8
2022-10-21T02:15:16.750Z,96.8
2022-10-21T02:16:17.208Z,96.8
2022-10-21T02:17:16.684Z,97.0
2022-10-21T02:18:17.148Z,96.8
2022-10-21T02:19:16.855Z,96.9
2022-10-21T02:20:17.418Z,96.8
2022-10-21T02:21:16.870Z,96.8
2022-10-21T02:22:17.196Z,96.9
2022-10-21T02:23:16.624Z,97.0
2022-10-21T02:24:17.037Z,97.0
2022-10-21T02:25:16.478Z,97.0
2022-10-21T02:26:16.939Z,97.0
2022-10-21T02:27:17.358Z,97.0
2022-10-21T02:28:16.811Z,97.0
2022-10-21T02:29:17.243Z,97.0
2022-10-21T02:30:16.701Z,97.2
2022-10-21T02:31:16.519Z,97.2
2022-10-21T02:32:17.069Z,97.2
2022-10-21T02:33:16.548Z,97.2
2022-10-21T02:34:17.024Z,97.2
2022-10-21T02:35:16.500Z,97.2
2022-10-21T02:36:16.961Z,97.2
2022-10-21T02:37:17.391Z,97.3
2022-10-21T02:38:16.820Z,97.3
2022-10-21T02:39:17.235Z,97.2
2022-10-21T02:40:16.682Z,97.2
2022-10-21T02:41:17.121Z,97.2
2022-10-21T02:42:17.164Z,97.2
2022-10-21T02:43:16.598Z,97.3
2022-10-21T02:44:17.064Z,97.3
2022-10-21T02:45:16.551Z,97.3
2022-10-21T02:46:17.013Z,97.3
2022-10-21T02:47:16.464Z,97.4
2022-10-21T02:48:16.906Z,97.4
2022-10-21T02:49:17.377Z,97.4
2022-10-21T02:50:16.838Z,97.4
2022-10-21T02:51:17.264Z,97.5
2022-10-21T02:52:17.229Z,97.4
2022-10-21T02:53:16.653Z,97.5
2022-10-21T02:54:17.076Z,97.4
2022-10-21T02:55:16.543Z,97.5
2022-10-21T02:56:17.064Z,97.5
2022-10-21T02:57:16.516Z,97.5
2022-10-21T02:58:16.947Z,97.5
2022-10-21T02:59:17.412Z,97.5
2022-10-21T03:00:16.905Z,97.5
2022-10-21T03:01:17.464Z,97.5
2022-10-21T03:02:16.899Z,97.5
2022-10-21T03:03:17.385Z,97.6
2022-10-21T03:04:16.856Z,97.5
2022-10-21T03:05:17.353Z,97.5
2022-10-21T03:06:16.780Z,97.5
2022-10-21T03:07:17.206Z,97.5
2022-10-21T03:08:16.664Z,97.5
2022-10-21T03:09:17.077Z,97.5
2022-10-21T03:10:16.513Z,97.5
2022-10-21T03:11:16.947Z,97.5
2022-10-21T03:12:17.022Z,97.5
2022-10-21T03:13:16.479Z,97.4
2022-10-21T03:14:16.925Z,97.4
2022-10-21T03:15:17.400Z,97.5
2022-10-21T03:17:24.314Z,97.4
2022-10-21T03:18:16.822Z,97.4
2022-10-21T03:19:17.282Z,97.4
2022-10-21T03:20:16.739Z,97.5
2022-10-21T03:21:17.170Z,97.5
2022-10-21T03:22:17.051Z,97.4
2022-10-21T03:23:16.474Z,97.4
2022-10-21T03:24:29.117Z,97.5
2022-10-21T03:25:16.636Z,97.5
2022-10-21T03:26:17.055Z,97.5
2022-10-21T03:27:16.546Z,97.5
2022-10-21T03:28:16.994Z,97.5
2022-10-21T03:29:16.437Z,97.5
2022-10-21T03:30:16.926Z,97.5
2022-10-21T03:31:17.410Z,97.5
2022-10-21T03:32:17.338Z,97.5
2022-10-21T03:33:16.803Z,97.5
2022-10-21T03:34:17.238Z,97.3
2022-10-21T03:35:16.692Z,97.3
2022-10-21T03:36:17.118Z,97.3
2022-10-21T03:37:16.560Z,97.3
2022-10-21T03:38:16.988Z,97.3
2022-10-21T03:39:16.455Z,97.2
2022-10-21T03:40:16.886Z,97.2
2022-10-21T03:41:17.317Z,97.2
2022-10-21T03:42:17.169Z,97.2
2022-10-21T03:43:16.639Z,97.1
2022-10-21T03:44:17.107Z,97.1
2022-10-21T03:45:16.571Z,97.1
2022-10-21T03:46:17.014Z,97.1
2022-10-21T03:47:16.463Z,97.2
2022-10-21T03:48:16.887Z,97.2
2022-10-21T03:49:21.738Z,97.2
2022-10-21T03:50:23.521Z,97.2
2022-10-21T03:51:17.206Z,97.1
2022-10-21T03:52:16.810Z,97.1
2022-10-21T03:53:42.620Z,97.0
2022-10-21T03:54:16.713Z,97.0
2022-10-21T03:55:17.136Z,97.0
2022-10-21T03:56:16.660Z,97.1
2022-10-21T03:57:17.132Z,97.1
2022-10-21T03:58:16.634Z,97.2
2022-10-21T03:59:17.142Z,97.1
2022-10-21T04:00:16.662Z,97.0
2022-10-21T04:01:17.193Z,97.0
2022-10-21T04:02:17.283Z,97.0
2022-10-21T04:03:16.771Z,97.0
2022-10-21T04:04:17.217Z,97.2
2022-10-21T04:05:16.639Z,97.2
2022-10-21T04:06:17.075Z,97.2
2022-10-21T04:07:16.518Z,97.2
2022-10-21T04:08:16.988Z,97.2
2022-10-21T04:09:16.531Z,97.2
2022-10-21T04:10:17.026Z,97.2
2022-10-21T04:11:16.506Z,97.2
2022-10-21T04:12:17.288Z,97.2
2022-10-21T04:13:16.788Z,97.3
2022-10-21T04:14:17.237Z,97.3
2022-10-21T04:15:16.687Z,97.2
2022-10-21T04:16:17.128Z,97.2
2022-10-21T04:17:16.555Z,97.2
2022-10-21T04:18:16.978Z,97.2
2022-10-21T04:19:17.422Z,97.2
2022-10-21T04:20:16.847Z,97.2
2022-10-21T04:21:17.393Z,97.3
2022-10-21T04:22:17.220Z,97.3
2022-10-21T04:23:16.660Z,97.3
2022-10-21T04:24:17.146Z,97.3
2022-10-21T04:25:16.612Z,97.3
2022-10-21T04:26:17.098Z,97.5
2022-10-21T04:27:16.566Z,97.5
2022-10-21T04:28:17.037Z,97.5
2022-10-21T04:29:16.528Z,97.5
2022-10-21T04:30:17.011Z,97.5
2022-10-21T04:31:16.476Z,97.6
2022-10-21T04:32:17.027Z,97.7
2022-10-21T04:33:16.456Z,97.8
2022-10-21T04:34:16.887Z,97.8
2022-10-21T04:35:17.326Z,97.8
2022-10-21T04:36:16.749Z,97.8
2022-10-21T04:37:17.223Z,97.9
2022-10-21T04:38:16.644Z,98.0
2022-10-21T04:39:17.085Z,98.0
2022-10-21T04:40:16.532Z,98.0
2022-10-21T04:41:17.000Z,98.0
2022-10-21T04:42:16.849Z,98.0
2022-10-21T04:43:17.370Z,98.0
2022-10-21T04:44:16.884Z,98.0
2022-10-21T04:45:17.337Z,98.0
2022-10-21T04:46:16.775Z,98.0
2022-10-21T04:47:17.199Z,98.0
2022-10-21T04:48:16.668Z,98.1
2022-10-21T04:49:17.106Z,98.2
2022-10-21T04:50:16.530Z,98.1
2022-10-21T04:51:16.947Z,98.2
2022-10-21T04:52:16.887Z,98.1
2022-10-21T04:53:17.362Z,98.0
2022-10-21T04:54:16.835Z,98.0
2022-10-21T04:55:17.297Z,98.0
2022-10-21T04:56:16.766Z,98.0
2022-10-21T04:57:17.263Z,98.0
2022-10-21T04:58:22.173Z,98.0
2022-10-21T04:59:17.001Z,98.0
2022-10-21T05:00:16.473Z,98.0
2022-10-21T05:01:17.129Z,98.0
2022-10-21T05:02:19.448Z,98.0
2022-10-21T05:03:17.178Z,98.0
2022-10-21T05:04:16.605Z,98.0
2022-10-21T05:05:17.025Z,98.0
2022-10-21T05:06:16.480Z,98.0
2022-10-21T05:07:16.903Z,98.0
2022-10-21T05:08:17.415Z,98.0
2022-10-21T05:09:17.074Z,98.0
2022-10-21T05:10:16.624Z,98.0
2022-10-21T05:11:17.077Z,98.0
2022-10-21T05:12:17.159Z,98.0
2022-10-21T05:13:16.831Z,97.9
2022-10-21T05:14:22.821Z,98.0
2022-10-21T05:15:16.496Z,97.9
2022-10-21T05:16:16.918Z,98.0
2022-10-21T05:17:17.359Z,98.0
2022-10-21T05:18:16.791Z,98.0
2022-10-21T05:19:17.232Z,98.1
2022-10-21T05:20:16.718Z,98.2
2022-10-21T05:21:17.151Z,98.2
2022-10-21T05:22:16.831Z,98.1
2022-10-21T05:23:17.311Z,98.2
2022-10-21T05:24:16.764Z,98.1
2022-10-21T05:25:17.225Z,98.0
2022-10-21T05:26:16.717Z,98.0
2022-10-21T05:27:17.191Z,98.0
2022-10-21T05:28:16.679Z,98.0
2022-10-21T05:29:17.176Z,98.0
2022-10-21T05:30:16.630Z,98.0
2022-10-21T05:31:17.050Z,98.0
2022-10-21T05:32:17.151Z,98.0
2022-10-21T05:33:16.569Z,98.0
2022-10-21T05:34:16.997Z,98.0
2022-10-21T05:35:16.439Z,98.0
2022-10-21T05:36:20.617Z,98.0
2022-10-21T05:37:17.343Z,98.0
2022-10-21T05:38:16.809Z,98.0
2022-10-21T05:39:17.295Z,98.0
2022-10-21T05:40:16.767Z,98.0
2022-10-21T05:41:17.231Z,98.0
2022-10-21T05:42:17.175Z,98.1
2022-10-21T05:43:16.644Z,98.0
2022-10-21T05:44:17.083Z,98.0
2022-10-21T05:45:16.531Z,98.0
2022-10-21T05:46:16.956Z,98.0
2022-10-21T05:47:17.380Z,98.0
2022-10-21T05:48:18.215Z,98.0
2022-10-21T05:49:16.648Z,97.9
2022-10-21T05:50:17.079Z,97.8
2022-10-21T05:51:16.538Z,97.8
2022-10-21T05:52:16.884Z,97.8
2022-10-21T05:53:17.389Z,97.8
2022-10-21T05:54:16.866Z,97.8
2022-10-21T05:55:17.341Z,97.8
2022-10-21T05:56:16.791Z,97.8
2022-10-21T05:57:17.289Z,97.9
2022-10-21T05:58:16.760Z,97.8
2022-10-21T05:59:17.209Z,97.9
2022-10-21T06:00:16.681Z,97.9
2022-10-21T06:01:17.272Z,98.0
2022-10-21T06:02:16.838Z,98.0
2022-10-21T06:03:17.301Z,98.0
2022-10-21T06:04:16.769Z,97.9
2022-10-21T06:05:17.270Z,97.9
2022-10-21T06:06:16.770Z,97.8
2022-10-21T06:07:17.269Z,97.8
2022-10-21T06:08:16.730Z,97.8
2022-10-21T06:09:17.265Z,97.8
2022-10-21T06:10:16.865Z,97.8
2022-10-21T06:11:17.292Z,97.8
2022-10-21T06:12:17.171Z,97.9
2022-10-21T06:13:16.594Z,97.8
2022-10-21T06:14:17.036Z,97.9
2022-10-21T06:15:16.511Z,97.9
2022-10-21T06:16:16.942Z,97.9
2022-10-21T06:17:17.380Z,97.9
2022-10-21T06:18:16.863Z,97.8
2022-10-21T06:19:17.328Z,97.8
2022-10-21T06:20:16.784Z,97.8
2022-10-21T06:21:17.287Z,97.8
2022-10-21T06:22:17.013Z,97.8
2022-10-21T06:23:16.506Z,97.7
2022-10-21T06:24:16.998Z,97.7
2022-10-21T06:26:16.931Z,97.7
2022-10-21T06:27:17.392Z,97.5
2022-10-21T06:28:16.829Z,97.6
2022-10-21T06:29:17.255Z,97.6
2022-10-21T06:30:16.687Z,97.6
2022-10-21T06:31:17.168Z,97.7
2022-10-21T06:32:17.075Z,97.5
2022-10-21T06:33:16.523Z,97.6
2022-10-21T06:35:16.476Z,97.7
2022-10-21T06:36:16.948Z,97.6
2022-10-21T06:37:17.419Z,97.5
2022-10-21T06:38:16.875Z,97.5
2022-10-21T06:39:17.349Z,97.5
2022-10-21T06:40:16.781Z,97.5
2022-10-21T06:41:17.244Z,97.5
2022-10-21T06:42:17.011Z,97.5
2022-10-21T06:43:16.639Z,97.4
2022-10-21T06:44:17.110Z,97.0
2022-10-21T06:45:16.535Z,97.1
2022-10-21T06:46:16.979Z,97.1
2022-10-21T06:47:16.451Z,97.2
2022-10-21T06:48:16.962Z,96.6
2022-10-21T06:49:17.443Z,96.6
2022-10-21T06:50:16.935Z,96.8
2022-10-21T06:51:17.405Z,96.8
2022-10-21T06:52:17.097Z,96.4
2022-10-21T06:53:16.585Z,96.4
2022-10-21T06:54:17.092Z,96.3
2022-10-21T06:55:16.526Z,96.2
2022-10-21T06:56:16.990Z,96.2
2022-10-21T06:57:16.418Z,96.4
2022-10-21T06:58:16.862Z,96.3
2022-10-21T06:59:17.285Z,96.7
2022-10-21T07:00:16.842Z,96.8
2022-10-21T07:01:35.121Z,96.7
2022-10-21T07:02:16.817Z,96.8
2022-10-21T07:03:17.314Z,96.6
2022-10-21T07:04:16.797Z,97.0
2022-10-21T07:05:17.354Z,97.1
2022-10-21T07:06:16.814Z,97.1
2022-10-21T07:07:17.284Z,96.9
2022-10-21T07:08:19.896Z,96.8
2022-10-21T07:09:16.991Z,96.7
2022-10-21T07:10:16.459Z,96.7
2022-10-21T07:11:16.895Z,96.8
2022-10-21T07:12:16.662Z,97.0
2022-10-21T07:13:17.107Z,97.1
2022-10-21T07:14:16.631Z,97.5
2022-10-21T07:15:17.126Z,97.4
2022-10-21T07:16:16.555Z,97.3
2022-10-21T07:17:17.025Z,97.2
2022-10-21T07:18:16.693Z,97.5
2022-10-21T07:19:17.152Z,97.5
2022-10-21T07:20:16.625Z,97.5
2022-10-21T07:21:17.107Z,97.7
2022-10-21T07:22:17.081Z,97.7
2022-10-21T07:23:16.820Z,97.8
2022-10-21T07:24:22.887Z,97.8
2022-10-21T07:25:17.390Z,97.8
2022-10-21T07:26:16.815Z,97.9
2022-10-21T07:27:17.235Z,98.0
2022-10-21T07:28:16.680Z,98.0
2022-10-21T07:29:17.118Z,98.0
2022-10-21T07:30:16.583Z,98.0
2022-10-21T07:31:17.031Z,98.0
2022-10-21T07:32:16.833Z,98.2
2022-10-21T07:33:17.298Z,98.2
2022-10-21T07:34:16.775Z,98.2
2022-10-21T07:35:17.226Z,98.2
2022-10-21T07:36:16.714Z,98.2
2022-10-21T07:37:17.174Z,98.2
2022-10-21T07:38:21.017Z,98.2
2022-10-21T07:39:17.300Z,98.2
2022-10-21T07:40:16.727Z,98.2
2022-10-21T07:41:17.157Z,98.2
2022-10-21T07:42:17.018Z,98.2
2022-10-21T07:43:16.487Z,98.1
2022-10-21T07:44:16.938Z,98.2
2022-10-21T07:45:17.379Z,98.3
2022-10-21T07:46:16.849Z,98.3
2022-10-21T07:47:17.331Z,98.3
2022-10-21T07:48:16.846Z,98.5
2022-10-21T07:49:17.320Z,98.4
2022-10-21T07:50:16.819Z,98.4
2022-10-21T07:51:17.309Z,98.4
2022-10-21T07:52:17.215Z,98.5
2022-10-21T07:53:17.333Z,98.5
2022-10-21T07:54:16.994Z,98.5
2022-10-21T07:55:16.418Z,98.6
2022-10-21T07:56:16.839Z,98.7
2022-10-21T07:57:17.277Z,98.7
2022-10-21T07:58:16.725Z,98.5
2022-10-21T07:59:17.188Z,98.6
2022-10-21T08:00:16.643Z,98.7
2022-10-21T08:01:17.283Z,98.6
2022-10-21T08:02:16.760Z,98.5
2022-10-21T08:03:17.221Z,98.3
2022-10-21T08:04:16.674Z,98.3
2022-10-21T08:05:17.138Z,98.3
2022-10-21T08:06:16.620Z,98.4
2022-10-21T08:07:17.066Z,98.4
2022-10-21T08:08:16.488Z,98.5
2022-10-21T08:09:17.211Z,98.5
2022-10-21T08:10:16.740Z,98.6
2022-10-21T08:11:17.178Z,98.6
2022-10-21T08:12:16.994Z,98.8
2022-10-21T08:13:16.414Z,98.6
2022-10-21T08:14:16.893Z,98.5
2022-10-21T08:15:17.366Z,98.5
2022-10-21T08:16:16.837Z,98.5
2022-10-21T08:17:17.324Z,98.5
2022-10-21T08:18:16.798Z,98.7
2022-10-21T08:19:17.268Z,98.8
2022-10-21T08:20:16.741Z,98.8
2022-10-21T08:21:17.218Z,98.8
2022-10-21T08:22:16.884Z,98.9
2022-10-21T08:23:17.558Z,99.0
2022-10-21T08:24:17.029Z,99.1
2022-10-21T08:25:16.456Z,99.0
2022-10-21T08:26:16.882Z,99.0
2022-10-21T08:27:17.303Z,98.9
2022-10-21T08:28:16.736Z,98.9
2022-10-21T08:29:17.219Z,98.9
2022-10-21T08:30:16.681Z,98.9
2022-10-21T08:31:17.182Z,99.0
2022-10-21T08:32:17.036Z,98.9
2022-10-21T08:33:16.505Z,98.8
2022-10-21T08:34:16.989Z,98.7
2022-10-21T08:35:16.479Z,98.8
2022-10-21T08:36:16.914Z,98.8
2022-10-21T08:37:22.121Z,98.6
2022-10-21T08:38:17.309Z,98.7
2022-10-21T08:39:16.743Z,98.8
2022-10-21T08:40:17.228Z,98.8
2022-10-21T08:41:16.658Z,98.9
2022-10-21T08:42:16.700Z,99.0
2022-10-21T08:43:17.200Z,98.9
2022-10-21T08:44:16.696Z,98.9
2022-10-21T08:45:17.186Z,98.9
2022-10-21T08:46:16.636Z,98.9
2022-10-21T08:47:17.128Z,99.0
2022-10-21T08:48:16.619Z,99.0
2022-10-21T08:49:17.148Z,98.8
2022-10-21T08:50:16.600Z,99.0
2022-10-21T08:51:17.056Z,99.1
2022-10-21T08:52:16.836Z,99.1
2022-10-21T08:53:17.318Z,99.1
2022-10-21T08:54:16.771Z,99.0
2022-10-21T08:55:17.215Z,99.1
2022-10-21T08:56:20.267Z,99.0
2022-10-21T08:57:16.789Z,99.0
2022-10-21T08:58:17.290Z,99.0
2022-10-21T08:59:16.766Z,99.0
2022-10-21T09:00:17.247Z,99.0
2022-10-21T09:01:16.820Z,99.1
2022-10-21T09:02:17.321Z,99.1
2022-10-21T09:03:16.979Z,99.2
2022-10-21T09:04:16.517Z,99.2
2022-10-21T09:05:17.076Z,99.2
2022-10-21T09:06:16.616Z,99.2
2022-10-21T09:07:17.035Z,99.2
2022-10-21T09:08:16.495Z,99.2
2022-10-21T09:09:17.046Z,99.1
2022-10-21T09:10:16.522Z,99.2
2022-10-21T09:11:16.951Z,99.3
2022-10-21T09:12:16.484Z,99.4
2022-10-21T09:13:16.948Z,99.4
2022-10-21T09:14:17.495Z,99.4
2022-10-21T09:15:16.971Z,99.5
2022-10-21T09:16:17.441Z,99.5
2022-10-21T09:17:16.909Z,99.5
2022-10-21T09:18:17.398Z,99.5
2022-10-21T09:19:16.865Z,99.5
2022-10-21T09:20:17.474Z,99.6
2022-10-21T09:21:16.942Z,99.7
2022-10-21T09:22:35.086Z,99.7
2022-10-21T09:23:17.026Z,99.7
2022-10-21T09:24:16.449Z,99.8
2022-10-21T09:25:16.889Z,99.8
2022-10-21T09:26:17.316Z,99.8
2022-10-21T09:27:32.010Z,100.0
2022-10-21T09:28:17.426Z,100.0
2022-10-21T09:29:16.920Z,100.0
2022-10-21T09:30:17.410Z,100.0
2022-10-21T09:31:16.860Z,100.0
2022-10-21T09:32:16.651Z,100.0
2022-10-21T09:33:17.161Z,100.0
2022-10-21T09:34:16.615Z,100.0
2022-10-21T09:35:17.077Z,100.0
2022-10-21T09:36:16.512Z,100.0
2022-10-21T09:37:16.965Z,100.0
2022-10-21T09:38:17.423Z,100.0
2022-10-21T09:39:16.850Z,100.0
2022-10-21T09:40:17.271Z,100.0
2022-10-21T09:41:16.819Z,100.0
2022-10-21T09:42:46.209Z,100.0
2022-10-21T09:43:17.040Z,100.0
2022-10-21T09:44:16.497Z,100.0
2022-10-21T09:45:16.971Z,100.0
2022-10-21T09:46:17.440Z,100.0
2022-10-21T09:47:16.919Z,100.0
2022-10-21T09:48:17.414Z,100.0
2022-10-21T09:49:54.340Z,99.9
2022-10-21T09:50:17.522Z,100.0
2022-10-21T09:51:17.006Z,99.9
2022-10-21T09:52:16.483Z,99.9
2022-10-21T09:53:16.931Z,99.7
2022-10-21T09:54:17.364Z,99.8
2022-10-21T09:55:16.796Z,99.8
2022-10-21T09:56:17.283Z,99.7
2022-10-21T09:57:16.783Z,99.7
2022-10-21T09:58:17.308Z,99.7
2022-10-21T09:59:16.765Z,99.7
2022-10-21T10:00:17.331Z,99.7
2022-10-21T10:01:16.876Z,99.7
2022-10-21T10:02:16.693Z,99.8
2022-10-21T10:03:17.161Z,99.8
2022-10-21T10:04:16.605Z,99.8
2022-10-21T10:05:17.043Z,99.8
2022-10-21T10:06:16.500Z,99.8
2022-10-21T10:07:16.921Z,99.7
2022-10-21T10:08:17.396Z,99.7
2022-10-21T10:09:16.828Z,99.7
2022-10-21T10:10:17.287Z,99.8
2022-10-21T10:11:16.755Z,99.8
2022-10-21T10:12:17.438Z,99.8
2022-10-21T10:13:16.901Z,99.8
2022-10-21T10:14:17.363Z,99.8
2022-10-21T10:15:16.864Z,99.7
2022-10-21T10:16:17.334Z,99.7
2022-10-21T10:17:16.794Z,99.7
2022-10-21T10:18:17.267Z,99.7
2022-10-21T10:19:16.711Z,99.6
2022-10-21T10:20:17.147Z,99.6
2022-10-21T10:21:16.602Z,99.6
2022-10-21T10:22:16.487Z,99.6
2022-10-21T10:23:16.920Z,99.7
2022-10-21T10:24:17.368Z,99.7
2022-10-21T10:25:16.844Z,99.7
2022-10-21T10:26:17.303Z,99.6
2022-10-21T10:27:16.853Z,99.6
2022-10-21T10:28:17.398Z,99.7
2022-10-21T10:29:16.886Z,99.7
2022-10-21T10:30:17.358Z,99.7
2022-10-21T10:31:16.825Z,99.8
2022-10-21T10:32:16.457Z,99.8
2022-10-21T10:33:16.879Z,99.8
2022-10-21T10:34:17.319Z,99.8
2022-10-21T10:35:16.757Z,99.8
2022-10-21T10:36:17.212Z,99.8
2022-10-21T10:37:16.638Z,99.8
2022-10-21T10:38:17.107Z,99.8
2022-10-21T10:39:16.581Z,99.8
2022-10-21T10:40:17.116Z,99.8
2022-10-21T10:41:16.605Z,99.8
2022-10-21T10:42:17.232Z,99.8
2022-10-21T10:43:16.695Z,99.8
2022-10-21T10:44:17.146Z,99.8
2022-10-21T10:45:16.638Z,99.8
2022-10-21T10:46:17.119Z,99.8
2022-10-21T10:47:16.614Z,99.8
2022-10-21T10:48:17.046Z,99.8
2022-10-21T10:49:16.489Z,99.8
2022-10-21T10:50:16.947Z,99.8
2022-10-21T10:51:17.382Z,99.8
2022-10-21T10:52:16.812Z,99.8
2022-10-21T10:53:17.265Z,99.8
2022-10-21T10:54:16.751Z,99.8
2022-10-21T10:55:17.290Z,99.8
2022-10-21T10:56:16.739Z,99.8
2022-10-21T10:57:17.191Z,99.8
2022-10-21T10:58:20.377Z,99.8
2022-10-21T10:59:16.539Z,99.8
2022-10-21T11:00:17.025Z,99.8
2022-10-21T11:01:16.573Z,99.8
2022-10-21T11:02:16.562Z,99.8
2022-10-21T11:03:16.985Z,99.8
2022-10-21T11:04:16.420Z,99.6
2022-10-21T11:05:16.871Z,99.6
2022-10-21T11:06:17.330Z,99.6
2022-10-21T11:07:16.765Z,99.7
2022-10-21T11:08:17.261Z,99.8
2022-10-21T11:09:16.938Z,99.8
2022-10-21T11:10:17.436Z,100.0
2022-10-21T11:11:16.888Z,100.0
2022-10-21T11:12:16.612Z,100.0
2022-10-21T11:13:17.114Z,100.0
2022-10-21T11:14:21.951Z,100.0
2022-10-21T11:15:17.298Z,100.0
2022-10-21T11:16:16.745Z,100.0
2022-10-21T11:17:17.197Z,100.0
2022-10-21T11:18:25.368Z,100.0
2022-10-21T11:19:16.863Z,100.0
2022-10-21T11:20:17.307Z,100.0
2022-10-21T11:21:16.747Z,100.0
2022-10-21T11:22:16.546Z,100.0
2022-10-21T11:23:17.016Z,100.0
2022-10-21T11:24:16.470Z,100.0
2022-10-21T11:25:16.938Z,100.0
2022-10-21T11:26:17.436Z,100.0
2022-10-21T11:27:19.383Z,100.0
2022-10-21T11:28:16.852Z,100.0
2022-10-21T11:29:17.343Z,100.0
2022-10-21T11:30:16.820Z,100.0
2022-10-21T11:31:17.296Z,100.0
2022-10-21T11:32:16.928Z,100.0
2022-10-21T11:33:17.564Z,100.0
2022-10-21T11:34:17.014Z,100.0
2022-10-21T11:35:16.466Z,100.0
2022-10-21T11:36:16.901Z,100.0
2022-10-21T11:37:17.400Z,100.0
2022-10-21T11:38:16.902Z,100.0
2022-10-21T11:39:21.692Z,100.0
2022-10-21T11:40:17.206Z,100.0
2022-10-21T11:42:16.553Z,100.0
2022-10-21T11:43:17.003Z,100.0
2022-10-21T11:44:16.498Z,100.0
2022-10-21T11:45:16.941Z,100.0
2022-10-21T11:46:17.371Z,100.0
2022-10-21T11:47:16.813Z,99.9
2022-10-21T11:48:17.234Z,99.9
2022-10-21T11:49:16.663Z,99.9
2022-10-21T11:50:17.229Z,99.9
2022-10-21T11:51:17.070Z,99.9
2022-10-21T11:52:16.582Z,99.8
2022-10-21T11:53:17.077Z,99.9
2022-10-21T11:54:16.559Z,99.8
2022-10-21T11:55:17.013Z,99.8
2022-10-21T11:56:16.514Z,99.8
2022-10-21T11:57:16.988Z,99.8
2022-10-21T11:58:16.435Z,99.8
2022-10-21T11:59:16.993Z,99.8
2022-10-21T12:00:16.467Z,99.8
2022-10-21T12:01:16.928Z,99.8
2022-10-21T12:02:16.869Z,99.8
2022-10-21T12:03:17.418Z,99.8
2022-10-21T12:04:16.868Z,99.8
2022-10-21T12:05:17.363Z,99.8
2022-10-21T12:06:16.834Z,99.8
2022-10-21T12:07:17.293Z,99.9
2022-10-21T12:08:16.886Z,99.8
2022-10-21T12:09:17.377Z,99.9
2022-10-21T12:10:16.858Z,99.9
2022-10-21T12:11:17.327Z,99.9
2022-10-21T12:12:17.374Z,99.9
2022-10-21T12:13:16.845Z,99.9
2022-10-21T12:14:17.280Z,99.9
2022-10-21T12:15:16.729Z,99.8
2022-10-21T12:16:17.173Z,99.8
2022-10-21T12:17:16.606Z,99.8
2022-10-21T12:18:17.037Z,99.8
2022-10-21T12:19:16.475Z,99.9
2022-10-21T12:20:23.880Z,99.9
2022-10-21T12:21:16.759Z,100.0
2022-10-21T12:22:17.045Z,100.0
2022-10-21T12:23:16.515Z,99.9
2022-10-21T12:24:17.004Z,100.0
2022-10-21T12:25:16.491Z,100.0
2022-10-21T12:26:16.999Z,100.0
2022-10-21T12:27:16.451Z,99.9
2022-10-21T12:28:16.930Z,100.0
2022-10-21T12:29:17.373Z,99.8
2022-10-21T12:30:16.812Z,99.9
2022-10-21T12:31:17.264Z,100.0
2022-10-21T12:32:17.197Z,100.0
2022-10-21T12:33:16.647Z,100.0
2022-10-21T12:34:17.127Z,100.0
2022-10-21T12:35:16.597Z,100.0
2022-10-21T12:36:17.059Z,100.0
2022-10-21T12:37:16.527Z,100.0
2022-10-21T12:38:17.003Z,99.9
2022-10-21T12:39:16.542Z,99.9
2022-10-21T12:40:17.050Z,99.9
2022-10-21T12:41:16.505Z,99.9
2022-10-21T12:42:16.483Z,100.0
2022-10-21T12:43:16.919Z,100.0
2022-10-21T12:44:17.413Z,100.0
2022-10-21T12:45:16.846Z,100.0
2022-10-21T12:46:17.338Z,100.0
2022-10-21T12:47:16.784Z,100.0
2022-10-21T12:48:17.287Z,100.0
2022-10-21T12:49:16.771Z,100.0
2022-10-21T12:50:17.270Z,100.0
2022-10-21T12:51:16.774Z,100.0
2022-10-21T12:52:17.026Z,100.0
2022-10-21T12:53:16.498Z,100.0
2022-10-21T12:54:16.971Z,99.8
2022-10-21T12:55:17.471Z,99.9
2022-10-21T12:56:16.928Z,99.9
2022-10-21T12:57:17.408Z,99.9
2022-10-21T12:58:16.843Z,99.9
2022-10-21T12:59:17.301Z,99.8
2022-10-21T13:00:16.857Z,99.8
2022-10-21T13:01:17.421Z,99.8
2022-10-21T13:02:16.901Z,99.8
2022-10-21T13:03:17.366Z,99.8
2022-10-21T13:04:16.865Z,99.8
2022-10-21T13:05:17.325Z,99.7
2022-10-21T13:06:16.791Z,99.7
2022-10-21T13:07:17.269Z,99.7
2022-10-21T13:08:16.714Z,99.7
2022-10-21T13:09:17.294Z,99.5
2022-10-21T13:10:16.823Z,99.5
2022-10-21T13:11:17.261Z,99.5
2022-10-21T13:12:17.047Z,99.4
2022-10-21T13:13:16.506Z,99.4
2022-10-21T13:14:16.977Z,99.3
2022-10-21T13:15:17.410Z,99.2
2022-10-21T13:16:16.831Z,99.2
2022-10-21T13:17:17.252Z,99.2
2022-10-21T13:18:16.730Z,99.2
2022-10-21T13:19:17.216Z,99.3